Time;durP1;ratioP1;P1;durP2;ratioP2;P2;SDS_P1;SDS_P2;PMS_P1;PMS_P2;Temp;Humidity;BMP_temperature;BMP_pressure;BME280_temperature;BME280_humidity;BME280_pressure;Samples;Min_cycle;Max_cycle;Signal;HPM_P1;HPM_P2
2021/01/22 00:00:40;;;;;;;0.43;0.30;;;10.30;99.90;;;;;;5029882;28;20387;-78
2021/01/22 00:03:06;;;;;;;0.70;0.40;;;10.90;99.90;;;;;;5030151;28;20386;-73
2021/01/22 00:05:32;;;;;;;0.40;0.30;;;10.60;99.90;;;;;;5030028;28;20391;-72
2021/01/22 00:07:57;;;;;;;0.50;0.40;;;10.50;99.90;;;;;;5029648;28;20395;-73
2021/01/22 00:10:23;;;;;;;0.60;0.50;;;11.50;99.90;;;;;;5030521;28;20398;-73
2021/01/22 00:12:49;;;;;;;0.50;0.40;;;10.90;99.90;;;;;;5029122;28;20879;-74
2021/01/22 00:15:15;;;;;;;0.45;0.30;;;11.40;99.90;;;;;;5030477;28;20419;-74
2021/01/22 00:17:44;;;;;;;0.75;0.47;;;11.10;99.90;;;;;;5029266;28;20399;-80
2021/01/22 00:20:10;;;;;;;0.90;0.30;;;10.90;99.40;;;;;;5030588;28;20386;-74
2021/01/22 00:22:36;;;;;;;0.40;0.30;;;11.30;95.90;;;;;;5030740;28;20927;-75
2021/01/22 00:25:03;;;;;;;1.30;0.40;;;11.10;96.10;;;;;;5029367;28;20470;-74
2021/01/22 00:27:29;;;;;;;0.90;0.40;;;11.60;94.90;;;;;;5031120;28;20419;-74
2021/01/22 00:29:55;;;;;;;1.20;0.40;;;11.60;97.20;;;;;;5033454;28;20872;-73
2021/01/22 00:32:20;;;;;;;1.00;0.40;;;12.00;94.20;;;;;;5034247;28;20860;-74
2021/01/22 00:34:46;;;;;;;0.90;0.40;;;11.80;93.60;;;;;;5033473;28;20407;-75
2021/01/22 00:37:12;;;;;;;0.50;0.40;;;11.80;93.80;;;;;;5034006;28;20888;-73
2021/01/22 00:39:38;;;;;;;2.00;0.60;;;11.70;98.40;;;;;;5033813;28;20429;-73
2021/01/22 00:42:04;;;;;;;1.00;0.40;;;11.80;93.30;;;;;;5033797;28;20379;-73
2021/01/22 00:44:30;;;;;;;1.67;0.70;;;12.10;91.90;;;;;;5034564;28;20387;-73
2021/01/22 00:46:55;;;;;;;1.20;0.50;;;12.30;97.60;;;;;;5033242;28;20736;-74
2021/01/22 00:49:21;;;;;;;1.10;0.40;;;12.10;92.80;;;;;;5033999;28;20731;-76
2021/01/22 00:51:47;;;;;;;1.38;0.50;;;;;;;;;;5033053;28;20448;-76
2021/01/22 00:54:14;;;;;;;0.77;0.40;;;11.50;94.00;;;;;;5033518;28;20371;-72
2021/01/22 00:56:40;;;;;;;1.35;0.70;;;12.00;94.60;;;;;;5033872;28;20394;-73
2021/01/22 00:59:06;;;;;;;2.67;0.70;;;12.00;96.80;;;;;;5032976;28;21052;-73
2021/01/22 01:01:31;;;;;;;2.00;0.63;;;11.80;91.20;;;;;;5033785;28;20526;-73
2021/01/22 01:03:57;;;;;;;1.80;0.70;;;12.10;90.70;;;;;;5032979;28;20398;-72
2021/01/22 01:06:23;;;;;;;1.90;0.80;;;12.10;95.00;;;;;;5033246;28;20871;-72
2021/01/22 01:08:48;;;;;;;0.90;0.50;;;12.30;90.40;;;;;;5032656;28;20740;-73
2021/01/22 01:11:14;;;;;;;2.57;0.50;;;11.50;89.40;;;;;;5032160;28;20390;-73
2021/01/22 01:13:40;;;;;;;0.80;0.50;;;;;;;;;;5032754;28;20387;-73
2021/01/22 01:16:06;;;;;;;1.77;0.65;;;12.30;88.40;;;;;;5032205;28;20469;-73
2021/01/22 01:18:31;;;;;;;3.50;1.20;;;11.70;88.70;;;;;;5032628;28;20399;-73
2021/01/22 01:20:57;;;;;;;4.27;0.93;;;11.80;94.20;;;;;;5030490;28;20389;-73
2021/01/22 01:23:22;;;;;;;2.60;0.60;;;11.90;90.40;;;;;;5032563;28;20398;-73
2021/01/22 01:25:48;;;;;;;1.40;0.77;;;11.70;90.00;;;;;;5031760;28;20395;-80
2021/01/22 01:28:14;;;;;;;2.73;0.50;;;12.10;94.90;;;;;;5031333;28;20481;-73
2021/01/22 01:30:40;;;;;;;1.37;0.60;;;11.40;87.10;;;;;;5032514;28;20406;-73
2021/01/22 01:33:05;;;;;;;1.53;0.60;;;12.40;88.20;;;;;;5030886;28;20387;-73
2021/01/22 01:35:31;;;;;;;1.70;0.50;;;11.90;86.50;;;;;;5032421;28;20426;-73
2021/01/22 01:37:57;;;;;;;2.73;0.90;;;11.70;86.50;;;;;;5031971;28;20420;-73
2021/01/22 01:40:23;;;;;;;3.10;0.67;;;12.20;86.40;;;;;;5031172;28;20399;-73
2021/01/22 01:42:49;;;;;;;1.48;0.80;;;12.40;92.10;;;;;;5030865;28;20893;-79
2021/01/22 01:45:16;;;;;;;1.10;0.70;;;11.80;92.60;;;;;;5032187;28;20395;-73
2021/01/22 01:47:43;;;;;;;2.60;0.70;;;11.80;82.20;;;;;;5031386;28;20885;-73
2021/01/22 01:50:09;;;;;;;2.42;0.70;;;11.80;82.30;;;;;;5030528;28;20422;-73
2021/01/22 01:52:35;;;;;;;1.50;0.70;;;11.80;86.30;;;;;;5032687;28;20415;-73
2021/01/22 01:55:01;;;;;;;1.73;0.80;;;11.90;83.40;;;;;;5031665;28;20473;-73
2021/01/22 01:57:27;;;;;;;2.00;0.50;;;12.20;82.70;;;;;;5032217;28;20847;-73
2021/01/22 01:59:55;;;;;;;1.50;0.70;;;12.20;83.00;;;;;;5030242;28;20423;-74
2021/01/22 02:02:21;;;;;;;2.13;0.70;;;12.10;91.10;;;;;;5030996;28;20472;-73
2021/01/22 02:04:46;;;;;;;1.08;0.60;;;11.70;82.20;;;;;;5031117;28;20863;-78
2021/01/22 02:07:12;;;;;;;2.30;0.60;;;12.30;91.30;;;;;;5031613;28;20399;-74
2021/01/22 02:09:38;;;;;;;2.00;0.60;;;;;;;;;;5032292;28;20891;-74
2021/01/22 02:12:05;;;;;;;2.35;0.70;;;;;;;;;;5031161;28;20474;-73
2021/01/22 02:14:31;;;;;;;2.38;0.77;;;11.80;76.80;;;;;;5030768;28;20461;-74
2021/01/22 02:16:58;;;;;;;1.75;0.60;;;12.00;83.10;;;;;;5030917;28;20383;-74
2021/01/22 02:19:42;;;;;;;2.38;0.80;;;12.20;82.40;;;;;;5031987;28;20387;-73
2021/01/22 02:22:08;;;;;;;2.38;0.88;;;12.70;84.70;;;;;;5031101;28;20871;-74
2021/01/22 02:24:34;;;;;;;1.90;0.60;;;11.80;91.20;;;;;;5030760;28;20410;-74
2021/01/22 02:27:05;;;;;;;0.60;0.55;;;11.70;83.00;;;;;;5031074;28;20375;-74
2021/01/22 02:29:36;;;;;;;0.60;0.60;;;12.30;82.40;;;;;;5032170;28;20379;-73
2021/01/22 02:32:06;;;;;;;2.00;0.60;;;12.00;90.60;;;;;;5031349;28;20939;-74
2021/01/22 02:34:34;;;;;;;1.40;0.40;;;12.10;87.80;;;;;;5031740;28;20414;-74
2021/01/22 02:37:02;;;;;;;3.95;0.60;;;11.80;83.80;;;;;;5029566;28;20498;-74
2021/01/22 02:39:33;;;;;;;1.70;0.70;;;11.70;86.00;;;;;;5029919;28;20476;-74
2021/01/22 02:42:01;;;;;;;0.80;0.40;;;12.00;86.30;;;;;;5029684;28;20406;-74
2021/01/22 02:44:27;;;;;;;1.58;0.60;;;12.00;91.20;;;;;;5030397;28;20391;-74
2021/01/22 02:46:53;;;;;;;1.30;0.60;;;11.40;92.50;;;;;;5029467;28;20492;-80
2021/01/22 02:49:18;;;;;;;1.10;0.60;;;11.50;92.60;;;;;;5030014;28;20533;-73
2021/01/22 02:51:45;;;;;;;1.33;0.60;;;11.80;85.90;;;;;;5030295;28;20391;-74
2021/01/22 02:54:11;;;;;;;0.90;0.40;;;11.80;85.10;;;;;;5030566;28;20459;-74
2021/01/22 02:56:39;;;;;;;2.17;0.50;;;11.60;84.60;;;;;;5031127;28;20612;-74
2021/01/22 02:59:48;;;;;;;0.85;0.50;;;12.30;86.70;;;;;;5030323;28;20912;-74
2021/01/22 03:02:32;;;;;;;1.95;0.57;;;12.20;83.70;;;;;;5013763;28;20894;-74
2021/01/22 03:04:59;;;;;;;1.20;0.60;;;12.30;76.60;;;;;;5030605;28;20392;-74
2021/01/22 03:07:35;;;;;;;0.60;0.40;;;12.20;83.10;;;;;;5031258;28;20399;-74
2021/01/22 03:10:03;;;;;;;1.20;0.40;;;12.20;83.50;;;;;;5030365;28;20478;-74
2021/01/22 03:12:30;;;;;;;2.65;0.60;;;12.40;82.60;;;;;;5030731;28;20858;-74
2021/01/22 03:14:58;;;;;;;1.70;0.80;;;12.50;82.60;;;;;;5028943;28;20419;-74
2021/01/22 03:17:24;;;;;;;1.90;0.50;;;12.50;82.00;;;;;;5046249;28;20391;-74
2021/01/22 03:19:50;;;;;;;1.30;0.52;;;12.10;81.40;;;;;;5030998;28;20474;-74
2021/01/22 03:22:15;;;;;;;2.40;0.52;;;11.80;89.40;;;;;;5028774;28;20398;-73
2021/01/22 03:24:42;;;;;;;1.50;0.60;;;11.90;90.10;;;;;;5031025;28;20395;-73
2021/01/22 03:27:08;;;;;;;0.82;0.60;;;12.20;81.20;;;;;;5029868;28;20387;-73
2021/01/22 03:29:35;;;;;;;2.95;0.73;;;13.10;82.70;;;;;;5031074;28;20394;-73
2021/01/22 03:32:02;;;;;;;2.17;0.73;;;12.30;82.60;;;;;;5028316;28;20402;-74
2021/01/22 03:34:28;;;;;;;0.60;0.50;;;12.10;82.80;;;;;;5030641;28;20436;-74
2021/01/22 03:36:55;;;;;;;1.05;0.60;;;12.00;83.00;;;;;;5012499;28;20490;-80
2021/01/22 03:39:21;;;;;;;0.85;0.50;;;12.20;83.70;;;;;;5030396;28;20469;-74
2021/01/22 03:41:47;;;;;;;1.70;0.60;;;12.00;83.60;;;;;;5031039;28;20763;-73
2021/01/22 03:44:13;;;;;;;0.80;0.52;;;12.40;85.10;;;;;;5030183;28;20379;-74
2021/01/22 03:46:39;;;;;;;0.75;0.50;;;12.00;90.50;;;;;;5030798;28;20380;-74
2021/01/22 03:49:04;;;;;;;1.40;0.80;;;12.00;83.70;;;;;;5029535;28;20391;-73
2021/01/22 03:51:30;;;;;;;1.50;0.70;;;12.20;85.60;;;;;;5030468;28;20453;-74
2021/01/22 03:53:56;;;;;;;0.88;0.60;;;11.70;90.50;;;;;;5030072;28;20375;-80
2021/01/22 03:56:21;;;;;;;1.80;0.70;;;12.20;85.70;;;;;;5028874;28;20883;-74
2021/01/22 03:58:47;;;;;;;0.80;0.50;;;11.90;83.50;;;;;;5028771;28;20903;-74
2021/01/22 04:01:12;;;;;;;0.70;0.50;;;12.00;85.50;;;;;;5027784;28;20383;-74
2021/01/22 04:03:38;;;;;;;0.97;0.50;;;12.00;84.60;;;;;;5033874;28;20902;-74
2021/01/22 04:06:04;;;;;;;0.90;0.57;;;12.20;85.40;;;;;;5036434;28;20394;-73
2021/01/22 04:08:30;;;;;;;1.70;0.70;;;12.10;85.10;;;;;;5035734;28;20662;-73
2021/01/22 04:10:55;;;;;;;1.23;0.50;;;12.00;85.90;;;;;;5034922;28;20390;-80
2021/01/22 04:13:21;;;;;;;1.10;0.60;;;12.50;93.40;;;;;;5034595;28;20434;-74
2021/01/22 04:15:47;;;;;;;0.80;0.40;;;11.90;86.10;;;;;;5036901;28;21008;-75
2021/01/22 04:18:12;;;;;;;1.07;0.60;;;11.70;85.20;;;;;;5036156;28;20863;-74
2021/01/22 04:20:38;;;;;;;0.80;0.40;;;11.70;89.20;;;;;;5035002;28;20474;-74
2021/01/22 04:23:04;;;;;;;1.90;0.60;;;;;;;;;;5034802;28;20727;-74
2021/01/22 04:25:29;;;;;;;2.30;0.70;;;11.90;80.90;;;;;;5036629;28;20804;-74
2021/01/22 04:27:55;;;;;;;1.87;0.90;;;11.60;92.60;;;;;;5036525;28;20419;-78
2021/01/22 04:30:21;;;;;;;0.67;0.50;;;13.00;87.80;;;;;;5036052;28;20429;-74
2021/01/22 04:32:46;;;;;;;1.30;0.50;;;11.80;85.60;;;;;;5036594;28;20470;-74
2021/01/22 04:35:13;;;;;;;1.40;0.50;;;11.80;90.40;;;;;;5035923;28;20411;-73
2021/01/22 04:37:40;;;;;;;0.98;0.43;;;11.90;91.70;;;;;;5036496;28;20387;-73
2021/01/22 04:40:06;;;;;;;1.20;0.40;;;12.30;93.00;;;;;;5034796;28;20383;-74
2021/01/22 04:42:32;;;;;;;1.38;0.40;;;12.10;89.80;;;;;;5036651;28;20437;-74
2021/01/22 04:44:58;;;;;;;1.60;0.55;;;;;;;;;;5036274;28;20869;-81
2021/01/22 04:47:25;;;;;;;0.70;0.40;;;12.50;80.20;;;;;;5036761;28;20383;-74
2021/01/22 04:49:51;;;;;;;1.33;0.63;;;12.20;88.20;;;;;;5035155;28;20747;-74
2021/01/22 04:52:17;;;;;;;1.02;0.43;;;12.70;91.50;;;;;;5035965;28;20809;-74
2021/01/22 04:54:46;;;;;;;0.80;0.50;;;12.00;84.70;;;;;;5035007;28;20903;-73
2021/01/22 04:57:14;;;;;;;0.90;0.60;;;12.60;90.70;;;;;;5034624;28;20397;-74
2021/01/22 04:59:49;;;;;;;1.80;0.50;;;13.00;91.80;;;;;;5034592;28;20398;-74
2021/01/22 05:02:16;;;;;;;1.60;0.50;;;12.00;85.30;;;;;;5035908;28;20383;-74
2021/01/22 05:04:42;;;;;;;1.30;0.50;;;11.70;86.50;;;;;;5036537;28;20387;-74
2021/01/22 05:07:09;;;;;;;1.40;0.70;;;12.40;85.90;;;;;;5035943;28;20529;-74
2021/01/22 05:09:35;;;;;;;3.10;0.70;;;11.40;85.60;;;;;;5036542;28;20390;-74
2021/01/22 05:12:01;;;;;;;1.40;0.50;;;12.20;84.00;;;;;;5034912;28;20387;-80
2021/01/22 05:14:27;;;;;;;3.08;0.68;;;11.80;84.00;;;;;;5034654;28;20440;-74
2021/01/22 05:17:01;;;;;;;0.65;0.50;;;11.60;82.90;;;;;;5033568;28;20394;-74
2021/01/22 05:19:26;;;;;;;1.00;0.45;;;11.30;87.30;;;;;;5033037;28;20383;-73
2021/01/22 05:21:52;;;;;;;1.60;0.60;;;12.00;83.40;;;;;;5032248;28;20395;-73
2021/01/22 05:24:23;;;;;;;2.20;1.08;;;12.10;90.40;;;;;;5032342;28;20379;-73
2021/01/22 05:27:01;;;;;;;2.40;0.98;;;12.40;82.30;;;;;;5033438;28;20385;-73
2021/01/22 05:29:28;;;;;;;1.15;0.50;;;;;;;;;;5033127;28;20387;-73
2021/01/22 05:31:54;;;;;;;1.42;0.52;;;12.00;84.80;;;;;;5033325;28;20458;-74
2021/01/22 05:34:20;;;;;;;2.00;0.75;;;12.10;83.20;;;;;;5032248;28;21087;-74
2021/01/22 05:36:48;;;;;;;1.27;0.50;;;11.90;80.70;;;;;;5033360;28;20422;-74
2021/01/22 05:39:22;;;;;;;2.60;0.60;;;12.00;80.40;;;;;;5031946;28;20415;-74
2021/01/22 05:41:55;;;;;;;0.90;0.60;;;11.80;84.00;;;;;;5033102;28;20375;-74
2021/01/22 05:44:22;;;;;;;1.15;0.70;;;11.90;83.90;;;;;;5031961;28;20622;-74
2021/01/22 05:47:00;;;;;;;0.70;0.40;;;11.60;83.10;;;;;;5032959;28;20390;-74
2021/01/22 05:49:26;;;;;;;3.38;0.80;;;;;;;;;;5030650;28;20387;-74
2021/01/22 05:51:52;;;;;;;1.70;0.57;;;11.70;86.00;;;;;;5032566;28;20375;-74
2021/01/22 05:54:34;;;;;;;2.88;0.88;;;;;;;;;;5031927;28;20780;-74
2021/01/22 05:57:00;;;;;;;2.20;0.60;;;;;;;;;;5031240;28;20380;-75
2021/01/22 05:59:25;;;;;;;1.30;0.50;;;11.70;88.10;;;;;;5031903;28;20379;-74
2021/01/22 06:01:51;;;;;;;0.60;0.50;;;;;;;;;;5031634;28;20411;-74
2021/01/22 06:04:17;;;;;;;1.00;0.50;;;11.80;73.90;;;;;;5031858;28;20463;-74
2021/01/22 06:06:43;;;;;;;1.60;0.40;;;11.80;83.30;;;;;;5031297;28;20491;-74
2021/01/22 06:09:08;;;;;;;2.80;0.60;;;12.10;78.50;;;;;;5031968;28;20473;-74
2021/01/22 06:11:34;;;;;;;2.33;0.50;;;11.90;77.10;;;;;;5032725;28;20395;-74
2021/01/22 06:14:04;;;;;;;2.70;0.60;;;;;;;;;;5032333;28;20445;-74
2021/01/22 06:16:30;;;;;;;2.53;0.50;;;12.20;77.60;;;;;;5032310;28;20407;-74
2021/01/22 06:18:59;;;;;;;1.92;0.60;;;12.80;83.80;;;;;;5031287;28;20386;-75
2021/01/22 06:22:04;;;;;;;1.00;0.50;;;11.80;75.10;;;;;;5031597;28;20379;-73
2021/01/22 06:24:30;;;;;;;1.60;0.70;;;11.90;77.10;;;;;;5013865;28;20399;-73
2021/01/22 06:26:56;;;;;;;1.63;0.45;;;11.80;76.90;;;;;;5030550;28;20387;-72
2021/01/22 06:29:22;;;;;;;3.10;0.70;;;12.10;87.40;;;;;;5030108;28;20433;-73
2021/01/22 06:31:50;;;;;;;1.90;1.00;;;12.20;76.80;;;;;;5032469;28;20379;-73
2021/01/22 06:34:16;;;;;;;1.85;0.60;;;12.30;75.60;;;;;;5046523;28;20934;-72
2021/01/22 06:36:47;;;;;;;1.40;0.70;;;14.80;88.10;;;;;;5030612;28;20399;-72
2021/01/22 06:39:13;;;;;;;1.17;0.70;;;12.40;85.90;;;;;;5031415;28;20415;-74
2021/01/22 06:41:39;;;;;;;1.10;0.60;;;13.00;88.10;;;;;;5030829;28;20479;-74
2021/01/22 06:44:06;;;;;;;2.00;0.68;;;13.40;78.90;;;;;;5030484;28;20387;-79
2021/01/22 06:46:33;;;;;;;0.90;0.43;;;12.40;76.40;;;;;;5031020;28;20380;-77
2021/01/22 06:49:00;;;;;;;2.20;0.70;;;12.20;76.50;;;;;;5031399;28;20379;-74
2021/01/22 06:51:44;;;;;;;1.48;0.50;;;;;;;;;;5030866;28;20387;-73
2021/01/22 06:54:21;;;;;;;1.42;0.57;;;11.90;77.10;;;;;;5030538;28;20387;-77
2021/01/22 06:56:47;;;;;;;2.10;0.77;;;;;;;;;;5030228;28;20383;-76
2021/01/22 06:59:39;;;;;;;2.33;0.55;;;12.10;78.00;;;;;;5029254;28;20383;-76
2021/01/22 07:02:36;;;;;;;3.08;0.70;;;12.30;80.30;;;;;;5031191;28;20918;-80
2021/01/22 07:05:02;;;;;;;0.80;0.60;;;;;;;;;;5029996;28;20482;-75
2021/01/22 07:07:47;;;;;;;1.08;0.70;;;12.20;77.90;;;;;;5012159;28;20395;-76
2021/01/22 07:10:14;;;;;;;0.90;0.60;;;;;;;;;;5026778;28;20531;-75
2021/01/22 07:12:46;;;;;;;1.00;0.73;;;12.20;77.90;;;;;;5031535;28;20462;-75
2021/01/22 07:15:21;;;;;;;1.90;0.77;;;;;;;;;;5019592;28;20964;-78
2021/01/22 07:17:54;;;;;;;1.90;0.70;;;12.50;88.60;;;;;;5024149;28;20705;-73
2021/01/22 07:20:20;;;;;;;0.73;0.60;;;;;;;;;;5019648;28;20536;-77
2021/01/22 07:23:01;;;;;;;0.90;0.40;;;12.20;90.10;;;;;;5016705;28;20409;-78
2021/01/22 07:25:40;;;;;;;1.50;0.63;;;12.20;78.80;;;;;;5019757;28;20558;-78
2021/01/22 07:28:20;;;;;;;0.80;0.50;;;12.10;79.70;;;;;;5021785;28;20398;-78
2021/01/22 07:30:55;;;;;;;2.83;0.70;;;12.20;83.70;;;;;;5017102;28;20951;-78
2021/01/22 07:33:52;;;;;;;1.77;0.67;;;12.40;78.50;;;;;;5016337;28;20431;-79
2021/01/22 07:36:26;;;;;;;0.73;0.65;;;;;;;;;;5016041;28;20419;-77
2021/01/22 07:38:52;;;;;;;1.40;0.40;;;;;;;;;;5017641;28;20903;-78
2021/01/22 07:41:22;;;;;;;1.67;0.60;;;;;;;;;;5017340;28;20399;-77
2021/01/22 07:44:05;;;;;;;1.20;0.50;;;;;;;;;;5018700;28;20395;-77
2021/01/22 07:46:49;;;;;;;0.80;0.50;;;12.20;81.50;;;;;;5017572;28;21325;-79
2021/01/22 07:49:15;;;;;;;1.50;0.60;;;;;;;;;;5014089;28;21765;-78
2021/01/22 07:51:41;;;;;;;0.80;0.50;;;12.00;90.60;;;;;;5018227;28;20751;-78
2021/01/22 07:54:08;;;;;;;1.00;0.40;;;;;;;;;;5019500;28;20452;-79
2021/01/22 07:56:42;;;;;;;0.75;0.40;;;12.70;82.30;;;;;;5016774;28;20522;-79
2021/01/22 07:59:13;;;;;;;0.73;0.50;;;;;;;;;;5019194;28;20387;-80
2021/01/22 08:01:39;;;;;;;0.80;0.40;;;11.90;83.00;;;;;;5020050;28;20478;-74
2021/01/22 08:04:06;;;;;;;0.80;0.52;;;12.40;90.20;;;;;;5051493;28;20395;-76
2021/01/22 08:06:47;;;;;;;0.80;0.50;;;12.30;83.60;;;;;;5012212;28;20399;-78
2021/01/22 08:09:14;;;;;;;0.50;0.40;;;;;;;;;;5015791;28;20421;-80
2021/01/22 08:11:41;;;;;;;0.80;0.60;;;;;;;;;;5020040;28;20433;-76
2021/01/22 08:14:08;;;;;;;0.60;0.50;;;;;;;;;;5018670;28;20804;-76
2021/01/22 08:16:36;;;;;;;0.65;0.60;;;;;;;;;;5018386;28;20600;-81
2021/01/22 08:19:02;;;;;;;0.80;0.40;;;;;;;;;;5019900;28;20382;-81
2021/01/22 08:21:29;;;;;;;0.88;0.47;;;12.50;80.00;;;;;;5014608;28;20394;-77
2021/01/22 08:23:57;;;;;;;1.20;0.60;;;12.40;82.10;;;;;;5018553;28;20951;-77
2021/01/22 08:26:23;;;;;;;0.60;0.50;;;12.10;88.60;;;;;;5019614;28;20876;-77
2021/01/22 08:28:51;;;;;;;1.10;0.50;;;12.50;91.00;;;;;;5020064;28;20950;-77
2021/01/22 08:31:18;;;;;;;0.60;0.40;;;;;;;;;;5014790;28;20406;-78
2021/01/22 08:33:44;;;;;;;1.20;0.50;;;;;;;;;;5020779;28;20380;-77
2021/01/22 08:36:10;;;;;;;1.65;0.57;;;;;;;;;;5020148;28;20411;-82
2021/01/22 08:38:37;;;;;;;0.70;0.40;;;;;;;;;;5017233;28;20423;-77
2021/01/22 08:41:03;;;;;;;0.90;0.60;;;12.40;89.70;;;;;;5032726;28;21539;-75
2021/01/22 08:43:29;;;;;;;0.50;0.40;;;;;;;;;;5022110;28;20436;-81
2021/01/22 08:46:06;;;;;;;0.70;0.50;;;11.80;91.10;;;;;;5018551;28;20786;-82
2021/01/22 08:48:33;;;;;;;0.60;0.50;;;11.30;99.90;;;;;;5019328;28;20470;-79
2021/01/22 08:51:00;;;;;;;0.80;0.50;;;10.90;98.30;;;;;;5018850;28;20412;-81
2021/01/22 08:53:26;;;;;;;0.80;0.40;;;10.90;99.90;;;;;;5023328;28;20390;-78
2021/01/22 08:56:15;;;;;;;1.00;0.52;;;10.30;99.90;;;;;;5021870;28;20444;-79
2021/01/22 08:59:09;;;;;;;0.70;0.50;;;10.90;99.90;;;;;;5023215;28;20395;-75
2021/01/22 09:01:53;;;;;;;0.80;0.60;;;13.30;99.90;;;;;;5022346;28;20407;-83
2021/01/22 09:04:24;;;;;;;0.50;0.43;;;10.90;99.90;;;;;;5022481;28;20406;-81
2021/01/22 09:06:52;;;;;;;0.47;0.40;;;11.20;99.60;;;;;;5024469;28;20743;-81
2021/01/22 09:09:39;;;;;;;0.60;0.57;;;11.60;98.20;;;;;;5019760;28;20395;-79
2021/01/22 09:12:12;;;;;;;0.70;0.50;;;11.60;99.90;;;;;;5023191;28;21603;-77
2021/01/22 09:15:06;;;;;;;0.90;0.50;;;11.50;99.60;;;;;;5021772;28;20411;-79
2021/01/22 09:17:42;;;;;;;0.60;0.30;;;11.00;93.90;;;;;;5022278;28;20391;-80
2021/01/22 09:20:20;;;;;;;0.57;0.45;;;12.20;94.60;;;;;;5018264;28;20422;-81
2021/01/22 09:22:48;;;;;;;0.90;0.60;;;12.30;94.10;;;;;;5023894;28;20388;-77
2021/01/22 09:25:18;;;;;;;1.60;0.55;;;12.60;97.40;;;;;;5022720;28;20394;-83
2021/01/22 09:27:45;;;;;;;0.60;0.50;;;12.30;97.00;;;;;;5022312;28;20383;-78
2021/01/22 09:30:13;;;;;;;0.80;0.60;;;13.40;91.50;;;;;;5020137;28;21795;-78
2021/01/22 09:32:43;;;;;;;1.10;0.40;;;12.00;91.20;;;;;;5022747;28;20398;-78
2021/01/22 09:35:09;;;;;;;0.80;0.60;;;12.10;96.20;;;;;;5021955;28;20418;-77
2021/01/22 09:37:35;;;;;;;1.17;0.50;;;12.50;93.30;;;;;;5022661;28;20407;-78
2021/01/22 09:40:01;;;;;;;0.70;0.40;;;;;;;;;;5052340;28;20494;-82
2021/01/22 09:42:27;;;;;;;1.00;0.40;;;12.60;90.20;;;;;;5050741;28;20418;-77
2021/01/22 09:44:53;;;;;;;0.80;0.43;;;12.50;90.50;;;;;;5021907;28;20395;-78
2021/01/22 09:47:19;;;;;;;0.80;0.40;;;;;;;;;;5021627;28;20388;-81
2021/01/22 09:56:28;;;;;;;0.50;0.30;;;14.40;78.60;;;;;;5265025;22;20445;-78
2021/01/22 09:58:54;;;;;;;0.70;0.50;;;14.30;82.10;;;;;;5048741;28;20882;-76
2021/01/22 10:01:20;;;;;;;1.05;0.50;;;13.90;79.20;;;;;;5045968;28;21570;-75
2021/01/22 10:03:46;;;;;;;1.80;0.30;;;14.00;78.20;;;;;;5048836;28;21463;-76
2021/01/22 10:06:14;;;;;;;0.70;0.40;;;13.80;77.40;;;;;;5049374;28;20386;-78
2021/01/22 10:08:39;;;;;;;1.00;0.50;;;14.30;76.50;;;;;;5047861;28;20483;-75
2021/01/22 10:11:08;;;;;;;0.60;0.50;;;13.90;75.90;;;;;;5047825;28;21132;-76
2021/01/22 10:13:36;;;;;;;0.63;0.40;;;14.50;87.00;;;;;;5050166;28;20385;-76
2021/01/22 10:16:03;;;;;;;0.50;0.30;;;14.00;82.60;;;;;;5049056;28;20412;-77
2021/01/22 10:18:28;;;;;;;0.95;0.40;;;13.90;74.30;;;;;;5051181;28;20861;-75
2021/01/22 10:20:54;;;;;;;0.90;0.40;;;14.20;84.40;;;;;;5038550;28;20587;-78
2021/01/22 10:23:20;;;;;;;2.00;0.50;;;14.50;73.40;;;;;;5050032;28;20468;-75
2021/01/22 10:25:46;;;;;;;0.93;0.40;;;14.20;72.20;;;;;;5049364;28;20395;-77
2021/01/22 10:28:12;;;;;;;1.80;0.57;;;14.70;82.50;;;;;;5049734;28;20416;-77
2021/01/22 10:30:38;;;;;;;0.50;0.40;;;14.80;71.40;;;;;;5047307;28;20413;-76
2021/01/22 10:33:03;;;;;;;0.65;0.40;;;14.90;70.40;;;;;;5047291;28;20390;-76
2021/01/22 10:35:29;;;;;;;0.70;0.50;;;15.10;73.70;;;;;;5048480;28;21659;-76
2021/01/22 10:37:55;;;;;;;0.55;0.30;;;14.70;72.30;;;;;;5050812;28;20461;-76
2021/01/22 10:40:21;;;;;;;1.30;0.40;;;14.70;66.90;;;;;;5048112;28;20512;-75
2021/01/22 10:42:47;;;;;;;1.25;0.45;;;15.10;70.50;;;;;;5048247;28;20377;-78
2021/01/22 10:45:13;;;;;;;1.30;0.40;;;14.80;80.60;;;;;;5049507;28;20378;-77
2021/01/22 10:47:39;;;;;;;0.50;0.40;;;15.20;67.40;;;;;;5048472;28;21061;-75
2021/01/22 10:50:05;;;;;;;1.10;0.40;;;15.40;70.70;;;;;;5040810;28;20576;-76
2021/01/22 10:52:31;;;;;;;0.70;0.40;;;14.60;73.00;;;;;;5048866;28;20392;-76
2021/01/22 10:54:57;;;;;;;0.50;0.30;;;15.30;80.90;;;;;;5049656;28;20475;-75
2021/01/22 10:57:23;;;;;;;0.90;0.40;;;;;;;;;;5046937;28;21231;-76
2021/01/22 10:59:49;;;;;;;0.90;0.40;;;14.70;65.60;;;;;;5045818;28;20374;-77
2021/01/22 11:02:14;;;;;;;0.80;0.43;;;15.00;80.40;;;;;;5045958;28;20757;-76
2021/01/22 11:04:40;;;;;;;1.92;0.60;;;15.30;70.30;;;;;;5046274;28;20401;-76
2021/01/22 11:07:06;;;;;;;1.40;0.40;;;15.00;69.80;;;;;;5061342;28;20394;-76
2021/01/22 11:09:32;;;;;;;1.20;0.60;;;15.00;80.40;;;;;;5048137;28;20376;-75
2021/01/22 11:11:58;;;;;;;0.50;0.40;;;14.90;69.30;;;;;;5045963;28;20432;-75
2021/01/22 11:14:23;;;;;;;0.70;0.37;;;15.20;68.70;;;;;;5047959;28;20396;-76
2021/01/22 11:16:49;;;;;;;2.90;0.40;;;15.30;80.90;;;;;;5064868;28;20421;-76
2021/01/22 11:19:15;;;;;;;2.50;0.40;;;15.20;69.60;;;;;;5071201;28;20420;-77
2021/01/22 11:21:40;;;;;;;0.60;0.45;;;15.40;69.30;;;;;;5046628;28;21085;-76
2021/01/22 11:24:06;;;;;;;1.23;0.50;;;15.30;76.90;;;;;;5058849;28;20398;-76
2021/01/22 11:26:33;;;;;;;0.60;0.40;;;15.00;68.10;;;;;;5046561;28;20403;-75
2021/01/22 11:28:59;;;;;;;0.50;0.40;;;14.90;69.80;;;;;;5046608;28;20401;-76
2021/01/22 11:31:25;;;;;;;0.60;0.50;;;15.20;74.30;;;;;;5044021;28;20811;-76
2021/01/22 11:33:51;;;;;;;1.40;0.50;;;15.00;80.40;;;;;;5046158;28;20475;-78
2021/01/22 11:36:16;;;;;;;0.50;0.37;;;14.20;69.90;;;;;;5046465;28;20423;-77
2021/01/22 11:38:42;;;;;;;0.70;0.40;;;14.30;70.40;;;;;;5050187;28;20386;-76
2021/01/22 11:41:08;;;;;;;4.05;0.68;;;14.50;78.10;;;;;;5047847;28;20554;-76
2021/01/22 11:43:33;;;;;;;0.43;0.40;;;14.30;73.20;;;;;;5047736;28;20552;-77
2021/01/22 11:45:59;;;;;;;0.85;0.50;;;14.30;79.40;;;;;;5045850;28;20386;-76
2021/01/22 11:48:25;;;;;;;0.87;0.40;;;13.90;79.20;;;;;;5048042;28;21064;-75
2021/01/22 11:50:50;;;;;;;0.70;0.40;;;12.00;77.10;;;;;;5038468;28;20383;-77
2021/01/22 11:53:16;;;;;;;2.83;0.60;;;13.90;90.80;;;;;;5048882;28;20858;-76
2021/01/22 11:55:42;;;;;;;1.40;0.60;;;13.90;82.10;;;;;;5046927;28;20424;-76
2021/01/22 11:58:08;;;;;;;1.30;0.80;;;13.90;81.40;;;;;;5048920;28;20783;-76
2021/01/22 12:00:33;;;;;;;1.40;0.60;;;13.50;90.90;;;;;;5046719;28;20448;-77
2021/01/22 12:03:00;;;;;;;1.53;0.90;;;13.70;81.50;;;;;;5047140;28;20449;-76
2021/01/22 12:05:25;;;;;;;1.63;0.70;;;13.60;82.20;;;;;;5044952;28;20748;-78
2021/01/22 12:07:51;;;;;;;0.80;0.60;;;13.80;83.20;;;;;;5048539;28;20389;-78
2021/01/22 12:10:17;;;;;;;0.60;0.47;;;14.00;92.30;;;;;;5044940;28;20385;-76
2021/01/22 12:12:43;;;;;;;0.88;0.40;;;13.60;83.70;;;;;;5047304;28;20870;-77
2021/01/22 12:15:09;;;;;;;0.80;0.50;;;13.70;85.00;;;;;;5048091;28;20417;-77
2021/01/22 12:17:34;;;;;;;1.10;0.60;;;14.20;92.00;;;;;;5046534;28;20377;-76
2021/01/22 12:20:00;;;;;;;0.70;0.50;;;13.50;82.80;;;;;;5041542;28;20404;-76
2021/01/22 12:22:26;;;;;;;1.20;0.50;;;13.70;83.60;;;;;;5042233;28;20836;-77
2021/01/22 12:24:51;;;;;;;0.40;0.40;;;13.50;89.70;;;;;;5050496;28;20396;-77
2021/01/22 12:27:17;;;;;;;0.50;0.32;;;13.50;83.60;;;;;;5048552;28;20736;-78
2021/01/22 12:29:42;;;;;;;0.90;0.50;;;12.90;90.40;;;;;;5048918;28;20389;-76
2021/01/22 12:32:08;;;;;;;0.80;0.50;;;13.20;86.30;;;;;;5050891;28;20385;-77
2021/01/22 12:34:34;;;;;;;1.47;0.70;;;13.40;86.20;;;;;;5049269;28;20383;-77
2021/01/22 12:36:59;;;;;;;0.93;0.67;;;13.50;93.20;;;;;;5051150;28;20389;-77
2021/01/22 12:39:25;;;;;;;0.70;0.50;;;13.50;89.10;;;;;;5057443;28;21147;-78
2021/01/22 12:41:51;;;;;;;0.80;0.60;;;13.50;89.80;;;;;;5052398;28;21206;-77
2021/01/22 12:44:17;;;;;;;1.20;0.57;;;13.50;94.90;;;;;;5054743;28;20456;-77
2021/01/22 12:46:43;;;;;;;2.00;0.50;;;13.20;89.30;;;;;;5053141;28;20884;-78
2021/01/22 12:49:09;;;;;;;0.77;0.67;;;12.90;90.20;;;;;;5051364;28;20388;-78
2021/01/22 12:51:34;;;;;;;1.23;0.80;;;13.20;92.60;;;;;;5044887;28;20392;-78
2021/01/22 12:54:00;;;;;;;0.80;0.50;;;13.10;91.50;;;;;;5047618;28;20408;-77
2021/01/22 12:56:26;;;;;;;0.50;0.40;;;13.20;90.10;;;;;;5050305;28;20463;-78
2021/01/22 12:58:51;;;;;;;1.10;0.50;;;13.10;93.90;;;;;;5047503;28;20479;-78
2021/01/22 13:01:17;;;;;;;1.60;0.60;;;12.70;90.10;;;;;;5047648;28;20472;-78
2021/01/22 13:03:43;;;;;;;1.10;0.70;;;13.10;90.40;;;;;;5049032;28;20389;-78
2021/01/22 13:06:09;;;;;;;0.93;0.57;;;12.70;95.30;;;;;;5047446;28;20413;-77
2021/01/22 13:08:35;;;;;;;2.00;1.10;;;12.80;89.50;;;;;;5052372;28;20403;-76
2021/01/22 13:11:00;;;;;;;1.75;0.90;;;13.00;90.50;;;;;;5048941;28;21291;-77